createdAt,value
2023-01-08T00:00:38.268Z,98231.66
2023-01-08T00:03:27.982Z,98229.16
2023-01-08T00:06:07.748Z,98226.17
2023-01-08T00:11:36.479Z,98224.45
2023-01-08T00:14:07.347Z,98223.95
2023-01-08T00:16:38.183Z,98221.00
2023-01-08T00:19:06.677Z,98219.83
2023-01-08T00:21:35.013Z,98221.34
2023-01-08T00:24:03.622Z,98222.02
2023-01-08T00:26:32.049Z,98221.66
2023-01-08T00:29:00.372Z,98221.81
2023-01-08T00:31:28.794Z,98221.69
2023-01-08T00:33:57.317Z,98226.02
2023-01-08T00:36:25.624Z,98228.80
2023-01-08T00:38:53.900Z,98225.42
2023-01-08T00:41:22.008Z,98224.46
2023-01-08T00:43:50.284Z,98227.05
2023-01-08T00:46:18.904Z,98232.79
2023-01-08T00:48:47.315Z,98235.04
2023-01-08T00:51:15.463Z,98237.02
2023-01-08T00:53:43.862Z,98240.20
2023-01-08T00:56:12.587Z,98242.20
2023-01-08T00:58:40.917Z,98240.33
2023-01-08T01:01:14.287Z,98239.90
2023-01-08T01:03:43.390Z,98238.61
2023-01-08T01:06:13.917Z,98235.27
2023-01-08T01:08:42.277Z,98231.89
2023-01-08T01:11:21.340Z,98234.65
2023-01-08T01:13:51.576Z,98234.86
2023-01-08T01:16:27.443Z,98238.60
2023-01-08T01:19:01.776Z,98238.73
2023-01-08T01:21:35.863Z,98235.90
2023-01-08T01:24:07.112Z,98231.01
2023-01-08T01:26:42.840Z,98230.04
2023-01-08T01:29:18.490Z,98227.21
2023-01-08T01:32:03.263Z,98224.34
2023-01-08T01:34:36.385Z,98222.75
2023-01-08T01:37:19.693Z,98218.18
2023-01-08T01:39:55.571Z,98214.84
2023-01-08T01:42:43.427Z,98213.16
2023-01-08T01:45:31.629Z,98209.95
2023-01-08T01:48:18.999Z,98205.79
2023-01-08T01:50:50.455Z,98201.24
2023-01-08T01:53:27.517Z,98198.31
2023-01-08T01:55:58.966Z,98195.60
2023-01-08T01:58:30.290Z,98191.48
2023-01-08T02:01:03.032Z,98187.91
2023-01-08T02:03:36.936Z,98182.94
2023-01-08T02:06:33.255Z,98182.93
2023-01-08T02:09:15.920Z,98182.04
2023-01-08T02:12:17.938Z,98182.19
2023-01-08T02:15:14.226Z,98178.20
2023-01-08T02:18:01.343Z,98173.83
2023-01-08T02:20:41.031Z,98169.73
2023-01-08T02:23:34.206Z,98172.95
2023-01-08T02:26:05.875Z,98174.55
2023-01-08T02:28:45.554Z,98172.56
2023-01-08T02:31:16.454Z,98167.89
2023-01-08T02:33:44.794Z,98169.73
2023-01-08T02:36:13.052Z,98169.09
2023-01-08T02:38:54.280Z,98171.02
2023-01-08T02:41:32.060Z,98167.40
2023-01-08T02:44:01.044Z,98165.20
2023-01-08T02:46:34.473Z,98166.95
2023-01-08T02:49:09.826Z,98171.20
2023-01-08T02:51:43.096Z,98170.20
2023-01-08T02:54:16.459Z,98169.45
2023-01-08T02:56:51.833Z,98167.88
2023-01-08T02:59:22.820Z,98163.85
2023-01-08T03:01:52.325Z,98161.87
2023-01-08T03:04:23.859Z,98163.95
2023-01-08T03:06:52.646Z,98164.27
2023-01-08T03:09:21.017Z,98163.92
2023-01-08T03:12:06.533Z,98161.62
2023-01-08T03:14:51.371Z,98157.16
2023-01-08T03:17:29.985Z,98155.73
2023-01-08T03:20:07.684Z,98153.48
2023-01-08T03:22:39.982Z,98151.76
2023-01-08T03:25:10.183Z,98153.31
2023-01-08T03:27:43.197Z,98150.92
2023-01-08T03:30:12.648Z,98150.26
2023-01-08T03:32:44.165Z,98147.90
2023-01-08T03:35:18.903Z,98145.23
2023-01-08T03:38:03.845Z,98146.50
2023-01-08T03:40:39.620Z,98150.88
2023-01-08T03:43:07.946Z,98151.60
2023-01-08T03:45:39.159Z,98153.02
2023-01-08T03:48:10.134Z,98156.61
2023-01-08T03:50:38.481Z,98155.19
2023-01-08T03:53:09.585Z,98156.15
2023-01-08T03:55:37.901Z,98154.46
2023-01-08T03:58:06.228Z,98150.60
2023-01-08T04:00:34.668Z,98150.48
2023-01-08T04:03:05.717Z,98150.92
2023-01-08T04:05:34.648Z,98149.73
2023-01-08T04:08:03.031Z,98152.38
2023-01-08T04:10:31.367Z,98157.17
2023-01-08T04:12:59.496Z,98153.73
2023-01-08T04:15:27.873Z,98157.14
2023-01-08T04:17:56.209Z,98157.77
2023-01-08T04:20:24.439Z,98155.88
2023-01-08T04:22:52.701Z,98155.28
2023-01-08T04:25:21.435Z,98152.01
2023-01-08T04:27:50.144Z,98149.59
2023-01-08T04:30:18.350Z,98145.67
2023-01-08T04:32:46.653Z,98151.69
2023-01-08T04:35:14.901Z,98147.98
2023-01-08T04:37:43.152Z,98146.86
2023-01-08T04:40:11.916Z,98147.08
2023-01-08T04:42:40.003Z,98144.93
2023-01-08T04:45:09.069Z,98146.21
2023-01-08T04:47:37.828Z,98144.45
2023-01-08T04:50:06.557Z,98142.81
2023-01-08T04:52:34.746Z,98143.88
2023-01-08T04:55:03.008Z,98141.58
2023-01-08T04:57:32.316Z,98143.69
2023-01-08T05:00:00.377Z,98141.79
2023-01-08T05:02:30.072Z,98140.61
2023-01-08T05:04:59.328Z,98137.00
2023-01-08T05:07:27.547Z,98136.50
2023-01-08T05:09:55.723Z,98134.98
2023-01-08T05:12:23.800Z,98130.65
2023-01-08T05:14:52.207Z,98130.10
2023-01-08T05:17:21.395Z,98130.34
2023-01-08T05:19:49.799Z,98130.60
2023-01-08T05:22:17.989Z,98134.41
2023-01-08T05:24:46.198Z,98132.12
2023-01-08T05:27:14.421Z,98129.79
2023-01-08T05:29:42.647Z,98131.50
2023-01-08T05:32:16.301Z,98129.35
2023-01-08T05:34:45.659Z,98129.95
2023-01-08T05:37:14.004Z,98131.45
2023-01-08T05:39:42.173Z,98128.33
2023-01-08T05:42:10.425Z,98129.70
2023-01-08T05:44:38.598Z,98132.31
2023-01-08T05:47:06.995Z,98128.33
2023-01-08T05:49:35.186Z,98129.55
2023-01-08T05:52:05.098Z,98129.27
2023-01-08T05:54:33.431Z,98128.39
2023-01-08T05:57:01.722Z,98126.37
2023-01-08T05:59:29.920Z,98129.77
2023-01-08T06:01:58.201Z,98127.98
2023-01-08T06:04:26.517Z,98131.53
2023-01-08T06:06:54.914Z,98132.80
2023-01-08T06:09:23.059Z,98131.04
2023-01-08T06:11:51.371Z,98137.04
2023-01-08T06:14:19.898Z,98134.17
2023-01-08T06:16:48.514Z,98133.70
2023-01-08T06:19:19.106Z,98136.59
2023-01-08T06:21:47.393Z,98133.39
2023-01-08T06:24:15.569Z,98135.39
2023-01-08T06:26:43.779Z,98139.34
2023-01-08T06:29:12.034Z,98135.85
2023-01-08T06:31:40.242Z,98137.09
2023-01-08T06:34:08.581Z,98133.00
2023-01-08T06:36:37.350Z,98134.46
2023-01-08T06:39:06.932Z,98134.84
2023-01-08T06:41:35.240Z,98130.23
2023-01-08T06:44:03.454Z,98133.56
2023-01-08T06:46:32.124Z,98137.92
2023-01-08T06:49:00.300Z,98139.35
2023-01-08T06:51:29.537Z,98141.55
2023-01-08T06:53:58.556Z,98143.27
2023-01-08T06:56:26.748Z,98146.16
2023-01-08T06:58:55.353Z,98145.50
2023-01-08T07:01:23.771Z,98145.94
2023-01-08T07:03:52.123Z,98149.73
2023-01-08T07:06:22.817Z,98148.83
2023-01-08T07:08:50.957Z,98156.33
2023-01-08T07:11:19.198Z,98160.39
2023-01-08T07:13:47.354Z,98158.79
2023-01-08T07:16:16.575Z,98160.77
2023-01-08T07:18:45.142Z,98162.47
2023-01-08T07:21:13.571Z,98162.01
2023-01-08T07:23:42.130Z,98160.61
2023-01-08T07:26:10.619Z,98165.23
2023-01-08T07:28:38.747Z,98168.26
2023-01-08T07:31:07.097Z,98167.52
2023-01-08T07:33:36.261Z,98169.67
2023-01-08T07:36:07.571Z,98170.78
2023-01-08T07:38:35.865Z,98169.53
2023-01-08T07:41:04.732Z,98169.63
2023-01-08T07:43:32.932Z,98168.31
2023-01-08T07:46:04.951Z,98170.52
2023-01-08T07:48:33.221Z,98168.23
2023-01-08T07:51:06.458Z,98169.97
2023-01-08T07:53:36.733Z,98176.85
2023-01-08T07:56:10.916Z,98176.92
2023-01-08T07:58:38.997Z,98173.05
2023-01-08T08:01:10.455Z,98176.67
2023-01-08T08:03:39.361Z,98180.32
2023-01-08T08:06:08.206Z,98183.34
2023-01-08T08:08:37.129Z,98186.14
2023-01-08T08:11:05.799Z,98182.80
2023-01-08T08:13:34.100Z,98181.06
2023-01-08T08:16:04.971Z,98181.98
2023-01-08T08:18:33.174Z,98184.48
2023-01-08T08:21:01.813Z,98184.34
2023-01-08T08:23:30.171Z,98187.55
2023-01-08T08:25:58.507Z,98189.64
2023-01-08T08:28:26.657Z,98191.35
2023-01-08T08:30:54.807Z,98189.92
2023-01-08T08:33:23.031Z,98191.98
2023-01-08T08:35:51.802Z,98190.27
2023-01-08T08:38:21.510Z,98190.66
2023-01-08T08:40:50.969Z,98189.47
2023-01-08T08:43:19.455Z,98190.98
2023-01-08T08:45:47.613Z,98192.99
2023-01-08T08:48:17.104Z,98192.19
2023-01-08T08:50:45.327Z,98192.73
2023-01-08T08:53:13.532Z,98191.62
2023-01-08T08:55:41.732Z,98193.64
2023-01-08T08:58:12.691Z,98191.11
2023-01-08T09:00:43.171Z,98186.38
2023-01-08T09:03:15.087Z,98180.55
2023-01-08T09:05:43.737Z,98176.25
2023-01-08T09:08:13.586Z,98178.45
2023-01-08T09:10:45.068Z,98178.45
2023-01-08T09:13:13.517Z,98179.07
2023-01-08T09:15:41.886Z,98179.84
2023-01-08T09:18:10.495Z,98176.50
2023-01-08T09:20:39.027Z,98169.45
2023-01-08T09:23:07.293Z,98170.13
2023-01-08T09:25:35.560Z,98167.45
2023-01-08T09:28:12.179Z,98167.22
2023-01-08T09:30:40.816Z,98167.43
2023-01-08T09:33:09.698Z,98162.46
2023-01-08T09:35:37.950Z,98157.58
2023-01-08T09:38:06.257Z,98153.50
2023-01-08T09:41:21.826Z,98149.43
2023-01-08T09:43:54.055Z,98150.89
2023-01-08T09:46:26.432Z,98150.91
2023-01-08T09:48:58.770Z,98145.20
2023-01-08T09:51:45.487Z,98140.15
2023-01-08T09:54:16.716Z,98143.66
2023-01-08T09:56:45.149Z,98142.67
2023-01-08T09:59:17.724Z,98143.23
2023-01-08T10:01:46.352Z,98139.72
2023-01-08T10:04:26.442Z,98138.54
2023-01-08T10:07:00.348Z,98140.33
2023-01-08T10:09:31.835Z,98137.47
2023-01-08T10:12:02.782Z,98135.21
2023-01-08T10:14:39.731Z,98128.30
2023-01-08T10:17:27.396Z,98122.91
2023-01-08T10:19:55.666Z,98116.38
2023-01-08T10:22:26.107Z,98114.64
2023-01-08T10:25:14.688Z,98116.15
2023-01-08T10:27:47.673Z,98115.55
2023-01-08T10:30:29.067Z,98109.98
2023-01-08T10:33:03.552Z,98108.46
2023-01-08T10:35:37.468Z,98103.92
2023-01-08T10:38:06.500Z,98097.02
2023-01-08T10:40:47.303Z,98098.38
2023-01-08T10:43:19.617Z,98096.14
2023-01-08T10:45:58.534Z,98092.62
2023-01-08T10:48:35.216Z,98086.34
2023-01-08T10:51:19.186Z,98085.67
2023-01-08T10:53:47.860Z,98089.48
2023-01-08T10:56:21.167Z,98090.14
2023-01-08T10:58:50.339Z,98085.18
2023-01-08T11:01:21.603Z,98081.47
2023-01-08T11:03:53.144Z,98083.44
2023-01-08T11:06:28.544Z,98081.16
2023-01-08T11:09:02.465Z,98079.55
2023-01-08T11:11:36.216Z,98077.40
2023-01-08T11:14:13.105Z,98073.62
2023-01-08T11:16:42.527Z,98073.57
2023-01-08T11:19:26.430Z,98073.43
2023-01-08T11:21:59.256Z,98076.66
2023-01-08T11:24:37.021Z,98072.84
2023-01-08T11:27:27.160Z,98064.91
2023-01-08T11:30:28.454Z,98064.21
2023-01-08T11:33:20.767Z,98065.27
2023-01-08T11:36:05.822Z,98058.53
2023-01-08T11:38:37.021Z,98059.92
2023-01-08T11:41:21.061Z,98052.80
2023-01-08T11:44:33.674Z,98050.14
2023-01-08T11:47:29.522Z,98054.36
2023-01-08T11:50:09.132Z,98056.91
2023-01-08T11:53:05.284Z,98057.18
2023-01-08T11:55:57.770Z,98053.20
2023-01-08T11:58:57.752Z,98054.34
2023-01-08T12:01:53.634Z,98056.66
2023-01-08T12:05:12.154Z,98060.15
2023-01-08T12:08:13.045Z,98049.22
2023-01-08T12:11:39.678Z,98050.14
2023-01-08T12:18:33.499Z,98053.11
2023-01-08T12:21:21.200Z,98048.48
2023-01-08T12:24:10.377Z,98051.56
2023-01-08T12:26:53.142Z,98051.14
2023-01-08T12:29:55.478Z,98052.44
2023-01-08T12:32:37.711Z,98046.60
2023-01-08T12:35:24.559Z,98041.16
2023-01-08T12:38:04.830Z,98038.27
2023-01-08T12:40:52.768Z,98034.59
2023-01-08T12:43:55.802Z,98037.39
2023-01-08T12:46:35.583Z,98035.48
2023-01-08T12:49:23.817Z,98035.74
2023-01-08T12:52:01.745Z,98037.79
2023-01-08T12:55:18.021Z,98035.49
2023-01-08T12:58:18.755Z,98038.44
2023-01-08T13:00:56.719Z,98033.93
2023-01-08T13:03:28.658Z,98034.33
2023-01-08T13:06:14.978Z,98034.23
2023-01-08T13:08:52.578Z,98032.16
2023-01-08T13:11:42.732Z,98028.23
2023-01-08T13:14:13.980Z,98024.48
2023-01-08T13:16:44.897Z,98020.56
2023-01-08T13:19:29.149Z,98021.91
2023-01-08T13:22:00.131Z,98023.14
2023-01-08T13:24:41.253Z,98022.89
2023-01-08T13:27:18.706Z,98018.55
2023-01-08T13:29:49.212Z,98019.48
2023-01-08T13:32:42.368Z,98020.71
2023-01-08T13:35:16.421Z,98019.87
2023-01-08T13:37:47.819Z,98016.34
2023-01-08T13:40:56.889Z,98017.44
2023-01-08T13:43:38.070Z,98017.56
2023-01-08T13:46:28.699Z,98012.44
2023-01-08T13:49:18.522Z,98015.96
2023-01-08T13:51:48.836Z,98011.91
2023-01-08T13:54:25.667Z,98012.25
2023-01-08T13:57:15.196Z,98011.86
2023-01-08T13:59:55.969Z,98007.51
2023-01-08T14:02:33.769Z,98011.67
2023-01-08T14:05:03.405Z,98007.27
2023-01-08T14:07:31.705Z,98001.65
2023-01-08T14:10:13.213Z,98004.73
2023-01-08T14:12:42.029Z,98001.20
2023-01-08T14:15:28.621Z,98002.92
2023-01-08T14:17:57.883Z,98006.13
2023-01-08T14:20:39.631Z,98005.13
2023-01-08T14:23:13.491Z,98002.97
2023-01-08T14:25:42.078Z,98000.02
2023-01-08T14:28:18.094Z,98002.70
2023-01-08T14:30:57.664Z,98011.68
2023-01-08T14:33:39.059Z,98011.92
2023-01-08T14:36:09.425Z,98009.88
2023-01-08T14:38:39.091Z,98010.77
2023-01-08T14:41:12.189Z,98013.21
2023-01-08T14:43:44.394Z,98008.75
2023-01-08T14:46:29.164Z,98003.36
2023-01-08T14:48:58.605Z,98002.65
2023-01-08T14:51:30.660Z,98002.93
2023-01-08T14:54:06.453Z,98003.17
2023-01-08T14:56:36.316Z,98010.33
2023-01-08T14:59:12.493Z,98013.62
2023-01-08T15:01:41.890Z,98008.52
2023-01-08T15:04:17.501Z,98012.17
2023-01-08T15:06:46.595Z,98012.53
2023-01-08T15:09:24.302Z,98010.48
2023-01-08T15:11:58.168Z,98005.70
2023-01-08T15:14:31.030Z,98001.41
2023-01-08T15:17:11.568Z,97999.19
2023-01-08T15:19:46.677Z,98004.87
2023-01-08T15:22:25.562Z,98003.92
2023-01-08T15:24:58.377Z,98004.70
2023-01-08T15:27:27.578Z,98011.23
2023-01-08T15:30:01.037Z,98009.64
2023-01-08T15:32:37.022Z,98002.66
2023-01-08T15:35:15.660Z,97996.81
2023-01-08T15:37:44.233Z,97994.17
2023-01-08T15:40:14.856Z,97991.88
2023-01-08T15:43:03.028Z,97988.32
2023-01-08T15:45:33.653Z,97988.95
2023-01-08T15:48:03.014Z,97990.17
2023-01-08T15:50:38.899Z,97992.36
2023-01-08T15:53:24.610Z,97986.69
2023-01-08T15:55:53.215Z,97986.14
2023-01-08T15:58:21.426Z,97983.63
2023-01-08T16:00:49.670Z,97976.08
2023-01-08T16:03:18.222Z,97972.08
2023-01-08T16:05:46.592Z,97975.41
2023-01-08T16:08:14.750Z,97977.67
2023-01-08T16:10:42.959Z,97978.14
2023-01-08T16:13:12.275Z,97975.60
2023-01-08T16:15:40.724Z,97971.15
2023-01-08T16:18:09.231Z,97976.33
2023-01-08T16:20:38.912Z,97975.31
2023-01-08T16:23:07.259Z,97975.41
2023-01-08T16:25:35.469Z,97976.56
2023-01-08T16:28:03.966Z,97971.71
2023-01-08T16:30:32.265Z,97970.74
2023-01-08T16:33:00.459Z,97973.08
2023-01-08T16:35:29.280Z,97975.23
2023-01-08T16:37:57.471Z,97977.94
2023-01-08T16:40:25.846Z,97975.42
2023-01-08T16:42:54.106Z,97972.63
2023-01-08T16:45:22.371Z,97971.55
2023-01-08T16:47:50.731Z,97971.65
2023-01-08T16:50:20.316Z,97967.52
2023-01-08T16:52:50.390Z,97966.92
2023-01-08T16:55:18.839Z,97966.35
2023-01-08T16:57:47.091Z,97966.17
2023-01-08T17:00:15.792Z,97964.38
2023-01-08T17:02:43.885Z,97964.82
2023-01-08T17:05:12.079Z,97962.27
2023-01-08T17:07:40.667Z,97959.86
2023-01-08T17:10:09.478Z,97959.18
2023-01-08T17:12:37.624Z,97959.58
2023-01-08T17:15:06.601Z,97959.49
2023-01-08T17:17:35.006Z,97959.23
2023-01-08T17:20:04.037Z,97961.95
2023-01-08T17:22:32.273Z,97964.16
2023-01-08T17:25:00.658Z,97966.11
2023-01-08T17:27:29.439Z,97967.15
2023-01-08T17:29:57.706Z,97965.29
2023-01-08T17:32:26.350Z,97956.77
2023-01-08T17:34:54.732Z,97954.85
2023-01-08T17:37:23.057Z,97952.23
2023-01-08T17:39:51.209Z,97951.53
2023-01-08T17:42:28.973Z,97950.23
2023-01-08T17:45:01.329Z,97950.68
2023-01-08T17:47:31.786Z,97947.95
2023-01-08T17:50:02.307Z,97945.71
2023-01-08T17:52:33.147Z,97949.13
2023-01-08T17:55:01.416Z,97947.05
2023-01-08T17:57:31.716Z,97943.34
2023-01-08T18:00:00.222Z,97947.04
2023-01-08T18:02:28.493Z,97951.80
2023-01-08T18:04:56.721Z,97947.92
2023-01-08T18:07:24.862Z,97949.39
2023-01-08T18:09:54.480Z,97950.02
2023-01-08T18:12:22.862Z,97944.62
2023-01-08T18:14:51.562Z,97941.51
2023-01-08T18:17:19.825Z,97942.88
2023-01-08T18:19:48.845Z,97938.73
2023-01-08T18:22:17.006Z,97934.69
2023-01-08T18:24:45.168Z,97936.23
2023-01-08T18:27:13.267Z,97931.20
2023-01-08T18:29:41.686Z,97930.77
2023-01-08T18:32:10.019Z,97929.44
2023-01-08T18:34:39.122Z,97937.53
2023-01-08T18:37:07.299Z,97937.85
2023-01-08T18:39:35.634Z,97935.75
2023-01-08T18:42:22.906Z,97940.26
2023-01-08T18:44:54.638Z,97939.98
2023-01-08T18:47:24.919Z,97937.38
2023-01-08T18:49:55.105Z,97932.63
2023-01-08T18:52:23.378Z,97931.34
2023-01-08T18:54:53.226Z,97926.42
2023-01-08T18:57:22.617Z,97923.66
2023-01-08T18:59:50.784Z,97920.89
2023-01-08T19:02:24.975Z,97924.51
2023-01-08T19:04:53.690Z,97925.00
2023-01-08T19:07:23.070Z,97923.44
2023-01-08T19:09:51.500Z,97923.61
2023-01-08T19:12:19.938Z,97918.45
2023-01-08T19:14:56.417Z,97911.04
2023-01-08T19:17:24.685Z,97912.98
2023-01-08T19:19:52.994Z,97913.25
2023-01-08T19:22:28.189Z,97910.73
2023-01-08T19:24:56.896Z,97907.74
2023-01-08T19:27:50.231Z,97904.45
2023-01-08T19:30:18.536Z,97906.73
2023-01-08T19:32:48.977Z,97903.78
2023-01-08T19:35:17.335Z,97899.44
2023-01-08T19:37:45.411Z,97900.72
2023-01-08T19:40:13.898Z,97904.41
2023-01-08T19:43:01.207Z,97903.05
2023-01-08T19:45:29.714Z,97906.31
2023-01-08T19:47:57.904Z,97904.94
2023-01-08T19:50:26.002Z,97905.54
2023-01-08T19:52:56.806Z,97906.88
2023-01-08T19:55:25.037Z,97909.05
2023-01-08T19:57:54.715Z,97911.82
2023-01-08T20:00:23.030Z,97910.07
2023-01-08T20:02:53.990Z,97910.07
2023-01-08T20:05:22.170Z,97903.64
2023-01-08T20:07:52.852Z,97898.58
2023-01-08T20:10:21.507Z,97898.32
2023-01-08T20:12:49.759Z,97898.61
2023-01-08T20:15:19.354Z,97895.13
2023-01-08T20:17:47.674Z,97899.45
2023-01-08T20:20:16.265Z,97897.67
2023-01-08T20:22:44.489Z,97894.31
2023-01-08T20:25:12.798Z,97892.48
2023-01-08T20:27:41.959Z,97893.18
2023-01-08T20:30:10.835Z,97891.43
2023-01-08T20:32:38.960Z,97894.07
2023-01-08T20:35:07.773Z,97889.45
2023-01-08T20:37:36.061Z,97878.02
2023-01-08T20:40:04.615Z,97870.35
2023-01-08T20:42:34.381Z,97870.23
2023-01-08T20:45:02.963Z,97869.23
2023-01-08T20:47:31.555Z,97866.50
2023-01-08T20:50:01.554Z,97865.55
2023-01-08T20:52:30.847Z,97869.29
2023-01-08T20:54:59.017Z,97867.79
2023-01-08T20:57:28.373Z,97869.38
2023-01-08T20:59:57.574Z,97864.05
2023-01-08T21:02:25.743Z,97864.10
2023-01-08T21:04:55.168Z,97861.88
2023-01-08T21:07:23.370Z,97856.31
2023-01-08T21:09:51.544Z,97858.50
2023-01-08T21:12:19.739Z,97862.02
2023-01-08T21:14:47.953Z,97861.13
2023-01-08T21:17:16.038Z,97863.11
2023-01-08T21:19:45.348Z,97863.39
2023-01-08T21:22:13.583Z,97865.06
2023-01-08T21:24:41.910Z,97859.60
2023-01-08T21:27:10.104Z,97864.14
2023-01-08T21:29:38.181Z,97866.54
2023-01-08T21:32:07.947Z,97867.76
2023-01-08T21:34:36.208Z,97866.61
2023-01-08T21:37:04.471Z,97860.25
2023-01-08T21:39:33.182Z,97856.21
2023-01-08T21:42:20.054Z,97849.92
2023-01-08T21:45:06.755Z,97852.06
2023-01-08T21:47:34.900Z,97848.45
2023-01-08T21:50:03.241Z,97847.50
2023-01-08T21:52:50.417Z,97840.23
2023-01-08T21:55:18.991Z,97842.27
2023-01-08T21:57:47.690Z,97836.04
2023-01-08T22:00:16.396Z,97834.48
2023-01-08T22:02:44.573Z,97837.70
2023-01-08T22:05:12.781Z,97833.70
2023-01-08T22:07:43.802Z,97830.38
2023-01-08T22:10:13.962Z,97829.11
2023-01-08T22:12:42.572Z,97826.90
2023-01-08T22:15:11.515Z,97825.25
2023-01-08T22:17:39.763Z,97822.14
2023-01-08T22:20:09.951Z,97818.27
2023-01-08T22:22:38.896Z,97816.23
2023-01-08T22:25:08.090Z,97814.38
2023-01-08T22:27:36.568Z,97811.08
2023-01-08T22:30:07.787Z,97809.15
2023-01-08T22:32:36.780Z,97801.95
2023-01-08T22:35:05.365Z,97797.73
2023-01-08T22:37:33.921Z,97792.73
2023-01-08T22:40:02.692Z,97791.27
2023-01-08T22:42:31.901Z,97789.23
2023-01-08T22:45:00.199Z,97789.48
2023-01-08T22:47:28.279Z,97784.94
2023-01-08T22:49:56.560Z,97782.02
2023-01-08T22:52:24.859Z,97775.53
2023-01-08T22:54:54.980Z,97776.20
2023-01-08T22:57:23.234Z,97771.80
2023-01-08T22:59:52.191Z,97768.27
2023-01-08T23:02:24.438Z,97766.31
2023-01-08T23:04:53.958Z,97762.60
2023-01-08T23:07:23.670Z,97767.15
2023-01-08T23:09:51.876Z,97771.68
2023-01-08T23:12:20.273Z,97758.94
2023-01-08T23:14:48.460Z,97755.35
2023-01-08T23:17:16.814Z,97758.70
2023-01-08T23:19:45.352Z,97753.73
2023-01-08T23:22:13.614Z,97748.61
2023-01-08T23:24:44.957Z,97745.75
2023-01-08T23:27:13.173Z,97743.95
2023-01-08T23:29:41.441Z,97743.68
2023-01-08T23:32:09.654Z,97742.48
2023-01-08T23:34:37.933Z,97734.75
2023-01-08T23:37:06.117Z,97729.73
2023-01-08T23:39:34.522Z,97733.02
2023-01-08T23:42:03.098Z,97725.34
2023-01-08T23:44:31.420Z,97719.73
2023-01-08T23:46:59.635Z,97714.40
2023-01-08T23:49:28.103Z,97717.98
2023-01-08T23:51:56.695Z,97716.91
2023-01-08T23:54:24.859Z,97712.91
2023-01-08T23:56:53.475Z,97707.30
2023-01-08T23:59:21.900Z,97708.66
